createdAt,value
2023-02-13T00:05:56.918Z,90.55
2023-02-13T00:17:57.341Z,92.46
2023-02-13T00:29:57.824Z,89.89
2023-02-13T00:41:58.255Z,89.66
2023-02-13T00:53:58.684Z,89.62
2023-02-13T01:05:59.140Z,90.68
2023-02-13T01:17:59.598Z,93.64
2023-02-13T01:30:00.002Z,91.72
2023-02-13T01:42:00.514Z,94.12
2023-02-13T01:54:00.926Z,91.67
2023-02-13T02:06:01.396Z,93.69
2023-02-13T02:18:01.891Z,90.46
2023-02-13T02:30:02.312Z,91.15
2023-02-13T02:42:02.767Z,93.83
2023-02-13T02:54:03.183Z,94.69
2023-02-13T03:06:03.672Z,93.34
2023-02-13T03:18:04.119Z,94.48
2023-02-13T03:30:04.582Z,94.63
2023-02-13T03:42:05.042Z,94.71
2023-02-13T03:54:05.456Z,94.52
2023-02-13T04:06:05.913Z,94.71
2023-02-13T04:18:06.360Z,93.67
2023-02-13T04:30:06.798Z,95.24
2023-02-13T04:42:07.254Z,93.53
2023-02-13T04:54:07.684Z,92.86
2023-02-13T05:06:08.178Z,93.90
2023-02-13T05:18:08.665Z,93.08
2023-02-13T05:30:09.081Z,94.91
2023-02-13T05:42:09.565Z,95.59
2023-02-13T05:54:09.998Z,96.05
2023-02-13T06:06:10.458Z,95.12
2023-02-13T06:18:10.882Z,93.41
2023-02-13T06:30:11.329Z,95.58
2023-02-13T06:42:11.760Z,96.38
2023-02-13T06:54:12.204Z,92.84
2023-02-13T07:06:12.653Z,89.05
2023-02-13T07:18:13.143Z,87.37
2023-02-13T07:30:13.569Z,87.75
2023-02-13T07:42:14.021Z,88.37
2023-02-13T07:54:14.501Z,88.01
2023-02-13T08:06:14.955Z,88.00
2023-02-13T08:18:15.655Z,88.96
2023-02-13T08:30:15.864Z,87.44
2023-02-13T08:42:16.499Z,86.51
2023-02-13T08:54:16.703Z,86.26
2023-02-13T09:06:17.180Z,85.41
2023-02-13T09:18:17.671Z,82.16
2023-02-13T09:30:18.110Z,79.65
2023-02-13T09:42:18.563Z,72.24
2023-02-13T09:54:19.029Z,67.37
2023-02-13T10:06:19.446Z,62.48
2023-02-13T10:18:19.911Z,62.96
2023-02-13T10:30:20.342Z,61.95
2023-02-13T10:42:20.795Z,62.02
2023-02-13T10:54:21.297Z,63.68
2023-02-13T11:06:21.734Z,61.95
2023-02-13T11:18:22.146Z,61.12
2023-02-13T11:30:22.599Z,61.09
2023-02-13T11:42:23.098Z,61.95
2023-02-13T11:54:23.526Z,60.73
2023-02-13T12:06:23.954Z,59.97
2023-02-13T12:18:24.443Z,60.79
2023-02-13T12:30:24.945Z,59.18
2023-02-13T12:42:25.358Z,60.47
2023-02-13T12:54:25.783Z,61.32
2023-02-13T13:06:26.305Z,62.96
2023-02-13T13:18:26.730Z,59.79
2023-02-13T13:30:27.296Z,61.75
2023-02-13T13:42:27.576Z,62.84
2023-02-13T13:54:28.049Z,63.85
2023-02-13T14:06:28.551Z,64.92
2023-02-13T14:18:28.990Z,64.22
2023-02-13T14:30:29.439Z,66.04
2023-02-13T14:42:29.866Z,65.98
2023-02-13T14:54:30.371Z,64.31
2023-02-13T15:06:30.828Z,66.07
2023-02-13T15:18:31.283Z,65.66
2023-02-13T15:30:31.745Z,63.86
2023-02-13T15:42:32.104Z,64.57
2023-02-13T15:54:33.066Z,67.31
2023-02-13T16:06:33.013Z,66.55
2023-02-13T16:18:33.560Z,68.91
2023-02-13T16:30:34.167Z,69.33
2023-02-13T16:42:34.482Z,70.46
2023-02-13T16:54:34.854Z,72.23
2023-02-13T17:06:35.307Z,73.30
2023-02-13T17:18:35.791Z,74.52
2023-02-13T17:30:36.253Z,76.69
2023-02-13T17:42:36.707Z,76.75
2023-02-13T17:54:37.123Z,78.23
2023-02-13T18:06:37.597Z,80.67
2023-02-13T18:18:37.999Z,81.40
2023-02-13T18:30:38.453Z,82.45
2023-02-13T18:42:38.944Z,84.57
2023-02-13T18:54:39.357Z,85.92
2023-02-13T19:06:39.840Z,87.10
2023-02-13T19:18:40.260Z,88.97
2023-02-13T19:30:40.685Z,90.10
2023-02-13T19:42:41.198Z,88.26
2023-02-13T19:54:41.606Z,89.37
2023-02-13T20:06:42.083Z,90.87
2023-02-13T20:18:42.513Z,92.45
2023-02-13T20:30:43.128Z,89.25
2023-02-13T20:42:43.456Z,86.07
2023-02-13T20:54:43.896Z,87.35
2023-02-13T21:06:44.351Z,88.57
2023-02-13T21:18:44.797Z,87.21
2023-02-13T21:30:45.340Z,92.20
2023-02-13T21:42:45.660Z,90.44
2023-02-13T21:54:46.157Z,92.40
2023-02-13T22:06:46.636Z,92.76
2023-02-13T22:18:47.036Z,89.07
2023-02-13T22:30:47.615Z,92.02
2023-02-13T22:42:47.946Z,88.02
2023-02-13T22:54:48.431Z,90.08
2023-02-13T23:06:48.857Z,87.31
2023-02-13T23:18:49.281Z,93.24
2023-02-13T23:30:49.775Z,96.08
2023-02-13T23:42:50.190Z,92.02
2023-02-13T23:54:50.658Z,88.79
